sensor_id;sensor_type;location;lat;lon;timestamp;temperature;humidity
62555;DHT22;48610;52.144;8.624;2023-07-13T00:00:07;18.20;99.90
62555;DHT22;48610;52.144;8.624;2023-07-13T00:03:10;18.30;99.90
62555;DHT22;48610;52.144;8.624;2023-07-13T00:06:13;18.30;99.90
62555;DHT22;48610;52.144;8.624;2023-07-13T00:09:15;18.20;99.90
62555;DHT22;48610;52.144;8.624;2023-07-13T00:12:29;18.30;99.90
62555;DHT22;48610;52.144;8.624;2023-07-13T00:15:30;18.20;99.90
62555;DHT22;48610;52.144;8.624;2023-07-13T00:18:32;18.10;99.90
62555;DHT22;48610;52.144;8.624;2023-07-13T00:21:32;18.10;99.90
62555;DHT22;48610;52.144;8.624;2023-07-13T00:24:33;18.20;99.90
62555;DHT22;48610;52.144;8.624;2023-07-13T00:27:33;18.00;99.90
62555;DHT22;48610;52.144;8.624;2023-07-13T00:30:34;17.90;99.90
62555;DHT22;48610;52.144;8.624;2023-07-13T00:33:35;17.80;99.90
62555;DHT22;48610;52.144;8.624;2023-07-13T00:36:36;17.80;99.90
62555;DHT22;48610;52.144;8.624;2023-07-13T00:39:36;17.80;99.90
62555;DHT22;48610;52.144;8.624;2023-07-13T00:42:37;17.70;99.90
62555;DHT22;48610;52.144;8.624;2023-07-13T00:48:46;17.90;99.90
62555;DHT22;48610;52.144;8.624;2023-07-13T00:54:56;17.90;99.90
62555;DHT22;48610;52.144;8.624;2023-07-13T00:57:58;17.90;99.90
62555;DHT22;48610;52.144;8.624;2023-07-13T01:00:59;17.70;99.90
62555;DHT22;48610;52.144;8.624;2023-07-13T01:03:59;17.80;99.90
62555;DHT22;48610;52.144;8.624;2023-07-13T01:07:00;17.70;99.90
62555;DHT22;48610;52.144;8.624;2023-07-13T01:10:01;17.60;99.90
62555;DHT22;48610;52.144;8.624;2023-07-13T01:13:01;17.60;99.90
62555;DHT22;48610;52.144;8.624;2023-07-13T01:16:13;17.60;99.90
62555;DHT22;48610;52.144;8.624;2023-07-13T01:22:26;17.90;99.90
62555;DHT22;48610;52.144;8.624;2023-07-13T01:25:27;17.90;99.90
62555;DHT22;48610;52.144;8.624;2023-07-13T01:28:28;18.00;99.90
62555;DHT22;48610;52.144;8.624;2023-07-13T01:31:29;17.90;99.90
62555;DHT22;48610;52.144;8.624;2023-07-13T01:34:29;17.90;99.90
62555;DHT22;48610;52.144;8.624;2023-07-13T01:37:30;17.90;99.90
62555;DHT22;48610;52.144;8.624;2023-07-13T01:40:37;17.90;99.90
62555;DHT22;48610;52.144;8.624;2023-07-13T01:43:38;17.90;99.90
62555;DHT22;48610;52.144;8.624;2023-07-13T01:46:38;17.80;99.90
62555;DHT22;48610;52.144;8.624;2023-07-13T01:49:39;17.80;99.90
62555;DHT22;48610;52.144;8.624;2023-07-13T01:52:39;17.80;99.90
62555;DHT22;48610;52.144;8.624;2023-07-13T01:55:41;17.90;99.90
62555;DHT22;48610;52.144;8.624;2023-07-13T01:58:41;17.90;99.90
62555;DHT22;48610;52.144;8.624;2023-07-13T02:01:42;18.10;99.90
62555;DHT22;48610;52.144;8.624;2023-07-13T02:04:42;17.90;99.90
62555;DHT22;48610;52.144;8.624;2023-07-13T02:07:43;17.70;99.90
62555;DHT22;48610;52.144;8.624;2023-07-13T02:10:43;17.60;99.90
62555;DHT22;48610;52.144;8.624;2023-07-13T02:13:44;17.60;99.90
62555;DHT22;48610;52.144;8.624;2023-07-13T02:16:45;17.60;99.90
62555;DHT22;48610;52.144;8.624;2023-07-13T02:19:45;17.40;99.90
62555;DHT22;48610;52.144;8.624;2023-07-13T02:22:46;17.50;99.90
62555;DHT22;48610;52.144;8.624;2023-07-13T02:25:46;17.30;99.90
62555;DHT22;48610;52.144;8.624;2023-07-13T02:28:47;17.30;99.90
62555;DHT22;48610;52.144;8.624;2023-07-13T02:31:48;17.30;99.90
62555;DHT22;48610;52.144;8.624;2023-07-13T02:34:48;17.10;99.90
62555;DHT22;48610;52.144;8.624;2023-07-13T02:37:49;17.10;99.90
62555;DHT22;48610;52.144;8.624;2023-07-13T02:40:50;17.10;99.90
62555;DHT22;48610;52.144;8.624;2023-07-13T02:43:50;17.10;99.90
62555;DHT22;48610;52.144;8.624;2023-07-13T02:46:51;17.00;99.90
62555;DHT22;48610;52.144;8.624;2023-07-13T02:49:51;17.00;99.90
62555;DHT22;48610;52.144;8.624;2023-07-13T02:52:52;16.70;99.90
62555;DHT22;48610;52.144;8.624;2023-07-13T02:55:53;16.70;99.90
62555;DHT22;48610;52.144;8.624;2023-07-13T02:58:53;16.70;99.90
62555;DHT22;48610;52.144;8.624;2023-07-13T03:01:55;16.70;99.90
62555;DHT22;48610;52.144;8.624;2023-07-13T03:04:55;16.60;99.90
62555;DHT22;48610;52.144;8.624;2023-07-13T03:07:56;16.50;99.90
62555;DHT22;48610;52.144;8.624;2023-07-13T03:11:01;16.40;99.90
62555;DHT22;48610;52.144;8.624;2023-07-13T03:14:02;16.30;99.90
62555;DHT22;48610;52.144;8.624;2023-07-13T03:17:03;16.20;99.90
62555;DHT22;48610;52.144;8.624;2023-07-13T03:20:04;16.30;99.90
62555;DHT22;48610;52.144;8.624;2023-07-13T03:23:05;16.20;99.90
62555;DHT22;48610;52.144;8.624;2023-07-13T03:26:11;16.10;99.90
62555;DHT22;48610;52.144;8.624;2023-07-13T03:29:13;16.20;99.90
62555;DHT22;48610;52.144;8.624;2023-07-13T03:32:13;16.30;99.90
62555;DHT22;48610;52.144;8.624;2023-07-13T03:35:14;16.10;99.90
62555;DHT22;48610;52.144;8.624;2023-07-13T03:38:15;16.10;99.90
62555;DHT22;48610;52.144;8.624;2023-07-13T03:41:16;16.10;99.90
62555;DHT22;48610;52.144;8.624;2023-07-13T03:44:17;16.10;99.90
62555;DHT22;48610;52.144;8.624;2023-07-13T03:47:18;16.10;99.90
62555;DHT22;48610;52.144;8.624;2023-07-13T03:50:19;16.20;99.90
62555;DHT22;48610;52.144;8.624;2023-07-13T03:53:19;16.20;99.90
62555;DHT22;48610;52.144;8.624;2023-07-13T03:56:20;16.30;99.90
62555;DHT22;48610;52.144;8.624;2023-07-13T03:59:21;16.50;99.90
62555;DHT22;48610;52.144;8.624;2023-07-13T04:02:21;16.40;99.90
62555;DHT22;48610;52.144;8.624;2023-07-13T04:05:22;16.50;99.90
62555;DHT22;48610;52.144;8.624;2023-07-13T04:08:23;16.60;99.90
62555;DHT22;48610;52.144;8.624;2023-07-13T04:11:26;16.60;99.90
62555;DHT22;48610;52.144;8.624;2023-07-13T04:14:27;16.50;99.90
62555;DHT22;48610;52.144;8.624;2023-07-13T04:17:27;16.50;99.90
62555;DHT22;48610;52.144;8.624;2023-07-13T04:20:28;16.50;99.90
62555;DHT22;48610;52.144;8.624;2023-07-13T04:23:29;16.40;99.90
62555;DHT22;48610;52.144;8.624;2023-07-13T04:26:30;16.70;99.90
62555;DHT22;48610;52.144;8.624;2023-07-13T04:29:30;16.90;99.90
62555;DHT22;48610;52.144;8.624;2023-07-13T04:32:31;17.00;99.90
62555;DHT22;48610;52.144;8.624;2023-07-13T04:35:32;16.90;99.90
62555;DHT22;48610;52.144;8.624;2023-07-13T04:38:33;16.80;99.90
62555;DHT22;48610;52.144;8.624;2023-07-13T04:41:33;16.60;99.90
62555;DHT22;48610;52.144;8.624;2023-07-13T04:44:34;16.50;99.90
62555;DHT22;48610;52.144;8.624;2023-07-13T04:47:34;16.40;99.90
62555;DHT22;48610;52.144;8.624;2023-07-13T04:50:38;16.40;99.90
62555;DHT22;48610;52.144;8.624;2023-07-13T04:53:39;16.40;99.90
62555;DHT22;48610;52.144;8.624;2023-07-13T04:56:39;16.40;99.90
62555;DHT22;48610;52.144;8.624;2023-07-13T04:59:40;16.50;99.90
62555;DHT22;48610;52.144;8.624;2023-07-13T05:02:44;16.70;99.90
62555;DHT22;48610;52.144;8.624;2023-07-13T05:05:58;16.80;99.90
62555;DHT22;48610;52.144;8.624;2023-07-13T05:08:59;16.80;99.90
62555;DHT22;48610;52.144;8.624;2023-07-13T05:11:59;16.70;99.90
62555;DHT22;48610;52.144;8.624;2023-07-13T05:15:00;16.80;99.90
62555;DHT22;48610;52.144;8.624;2023-07-13T05:18:01;16.80;99.90
62555;DHT22;48610;52.144;8.624;2023-07-13T05:21:05;16.90;99.90
62555;DHT22;48610;52.144;8.624;2023-07-13T05:24:06;16.80;99.90
62555;DHT22;48610;52.144;8.624;2023-07-13T05:27:06;16.90;99.90
62555;DHT22;48610;52.144;8.624;2023-07-13T05:30:08;16.90;99.90
62555;DHT22;48610;52.144;8.624;2023-07-13T05:33:11;17.00;99.90
62555;DHT22;48610;52.144;8.624;2023-07-13T05:36:12;17.10;99.90
62555;DHT22;48610;52.144;8.624;2023-07-13T05:39:12;17.10;99.90
62555;DHT22;48610;52.144;8.624;2023-07-13T05:42:13;17.20;99.90
62555;DHT22;48610;52.144;8.624;2023-07-13T05:45:14;17.30;99.90
62555;DHT22;48610;52.144;8.624;2023-07-13T05:48:15;17.40;99.90
62555;DHT22;48610;52.144;8.624;2023-07-13T05:51:15;17.20;99.90
62555;DHT22;48610;52.144;8.624;2023-07-13T05:54:16;17.30;99.90
62555;DHT22;48610;52.144;8.624;2023-07-13T05:57:16;17.40;99.90
62555;DHT22;48610;52.144;8.624;2023-07-13T06:00:17;17.30;99.90
62555;DHT22;48610;52.144;8.624;2023-07-13T06:03:18;17.50;99.90
62555;DHT22;48610;52.144;8.624;2023-07-13T06:06:18;17.30;99.90
62555;DHT22;48610;52.144;8.624;2023-07-13T06:09:19;17.40;99.90
62555;DHT22;48610;52.144;8.624;2023-07-13T06:12:20;17.60;99.90
62555;DHT22;48610;52.144;8.624;2023-07-13T06:15:20;17.50;99.90
62555;DHT22;48610;52.144;8.624;2023-07-13T06:18:21;17.50;99.90
62555;DHT22;48610;52.144;8.624;2023-07-13T06:21:22;17.50;99.90
62555;DHT22;48610;52.144;8.624;2023-07-13T06:24:23;17.50;99.90
62555;DHT22;48610;52.144;8.624;2023-07-13T06:27:24;17.70;99.90
62555;DHT22;48610;52.144;8.624;2023-07-13T06:30:24;17.80;99.90
62555;DHT22;48610;52.144;8.624;2023-07-13T06:33:26;17.60;99.90
62555;DHT22;48610;52.144;8.624;2023-07-13T06:36:26;17.60;99.90
62555;DHT22;48610;52.144;8.624;2023-07-13T06:39:27;17.90;99.90
62555;DHT22;48610;52.144;8.624;2023-07-13T06:42:27;17.90;99.90
62555;DHT22;48610;52.144;8.624;2023-07-13T06:45:28;17.70;99.90
62555;DHT22;48610;52.144;8.624;2023-07-13T06:48:29;17.90;99.90
62555;DHT22;48610;52.144;8.624;2023-07-13T06:51:29;18.00;99.90
62555;DHT22;48610;52.144;8.624;2023-07-13T06:54:30;17.90;99.90
62555;DHT22;48610;52.144;8.624;2023-07-13T06:57:30;17.90;99.90
62555;DHT22;48610;52.144;8.624;2023-07-13T07:00:31;18.00;99.90
62555;DHT22;48610;52.144;8.624;2023-07-13T07:03:32;18.40;99.90
62555;DHT22;48610;52.144;8.624;2023-07-13T07:06:33;18.40;99.90
62555;DHT22;48610;52.144;8.624;2023-07-13T07:09:33;18.50;99.90
62555;DHT22;48610;52.144;8.624;2023-07-13T07:12:34;18.60;99.90
62555;DHT22;48610;52.144;8.624;2023-07-13T07:15:35;18.50;99.90
62555;DHT22;48610;52.144;8.624;2023-07-13T07:18:36;18.70;99.90
62555;DHT22;48610;52.144;8.624;2023-07-13T07:21:36;18.50;99.90
62555;DHT22;48610;52.144;8.624;2023-07-13T07:24:37;18.50;99.90
62555;DHT22;48610;52.144;8.624;2023-07-13T07:27:38;18.60;99.90
62555;DHT22;48610;52.144;8.624;2023-07-13T07:30:42;18.80;99.90
62555;DHT22;48610;52.144;8.624;2023-07-13T07:33:43;19.00;99.90
62555;DHT22;48610;52.144;8.624;2023-07-13T07:36:44;19.00;99.90
62555;DHT22;48610;52.144;8.624;2023-07-13T07:39:44;19.00;99.90
62555;DHT22;48610;52.144;8.624;2023-07-13T07:42:45;18.80;99.90
62555;DHT22;48610;52.144;8.624;2023-07-13T07:45:46;19.20;99.90
62555;DHT22;48610;52.144;8.624;2023-07-13T07:48:46;19.20;99.90
62555;DHT22;48610;52.144;8.624;2023-07-13T07:51:47;19.10;99.90
62555;DHT22;48610;52.144;8.624;2023-07-13T07:54:48;19.30;99.90
62555;DHT22;48610;52.144;8.624;2023-07-13T07:57:49;19.40;99.90
62555;DHT22;48610;52.144;8.624;2023-07-13T08:00:49;19.40;99.90
62555;DHT22;48610;52.144;8.624;2023-07-13T08:03:50;19.60;99.90
62555;DHT22;48610;52.144;8.624;2023-07-13T08:06:51;19.50;99.90
62555;DHT22;48610;52.144;8.624;2023-07-13T08:09:54;19.10;99.90
62555;DHT22;48610;52.144;8.624;2023-07-13T08:12:55;19.00;99.90
62555;DHT22;48610;52.144;8.624;2023-07-13T08:15:55;19.00;99.90
62555;DHT22;48610;52.144;8.624;2023-07-13T08:18:56;18.90;99.90
62555;DHT22;48610;52.144;8.624;2023-07-13T08:21:56;19.00;99.90
62555;DHT22;48610;52.144;8.624;2023-07-13T08:24:57;19.20;99.90
62555;DHT22;48610;52.144;8.624;2023-07-13T08:27:57;19.30;99.90
62555;DHT22;48610;52.144;8.624;2023-07-13T08:31:03;19.20;99.90
62555;DHT22;48610;52.144;8.624;2023-07-13T08:34:03;19.70;99.90
62555;DHT22;48610;52.144;8.624;2023-07-13T08:37:04;19.80;99.90
62555;DHT22;48610;52.144;8.624;2023-07-13T08:40:07;19.60;99.90
62555;DHT22;48610;52.144;8.624;2023-07-13T08:43:23;19.70;99.90
62555;DHT22;48610;52.144;8.624;2023-07-13T08:46:38;19.80;99.90
62555;DHT22;48610;52.144;8.624;2023-07-13T08:49:40;19.90;99.90
62555;DHT22;48610;52.144;8.624;2023-07-13T08:52:43;19.90;99.90
62555;DHT22;48610;52.144;8.624;2023-07-13T08:55:44;19.80;99.90
62555;DHT22;48610;52.144;8.624;2023-07-13T08:58:48;19.70;99.90
62555;DHT22;48610;52.144;8.624;2023-07-13T09:08:41;20.20;99.90
62555;DHT22;48610;52.144;8.624;2023-07-13T09:11:49;20.20;99.90
62555;DHT22;48610;52.144;8.624;2023-07-13T09:14:55;20.50;99.90
62555;DHT22;48610;52.144;8.624;2023-07-13T09:18:03;20.40;99.90
62555;DHT22;48610;52.144;8.624;2023-07-13T09:21:21;20.50;99.90
62555;DHT22;48610;52.144;8.624;2023-07-13T09:24:36;20.40;99.90
62555;DHT22;48610;52.144;8.624;2023-07-13T09:27:43;20.60;99.90
62555;DHT22;48610;52.144;8.624;2023-07-13T09:31:07;20.90;99.90
62555;DHT22;48610;52.144;8.624;2023-07-13T09:34:11;20.50;99.90
62555;DHT22;48610;52.144;8.624;2023-07-13T09:37:12;20.60;99.90
62555;DHT22;48610;52.144;8.624;2023-07-13T09:47:20;20.60;99.90
62555;DHT22;48610;52.144;8.624;2023-07-13T09:50:23;20.70;99.90
62555;DHT22;48610;52.144;8.624;2023-07-13T09:53:24;20.70;99.60
62555;DHT22;48610;52.144;8.624;2023-07-13T09:56:31;20.70;99.70
62555;DHT22;48610;52.144;8.624;2023-07-13T09:59:37;20.80;99.40
62555;DHT22;48610;52.144;8.624;2023-07-13T10:02:40;20.80;99.20
62555;DHT22;48610;52.144;8.624;2023-07-13T10:05:43;20.80;99.40
62555;DHT22;48610;52.144;8.624;2023-07-13T10:08:46;21.00;99.00
62555;DHT22;48610;52.144;8.624;2023-07-13T10:11:50;21.00;98.70
62555;DHT22;48610;52.144;8.624;2023-07-13T10:14:57;20.90;98.10
62555;DHT22;48610;52.144;8.624;2023-07-13T10:17:59;21.10;98.20
62555;DHT22;48610;52.144;8.624;2023-07-13T10:21:12;21.30;96.70
62555;DHT22;48610;52.144;8.624;2023-07-13T10:24:43;21.70;97.50
62555;DHT22;48610;52.144;8.624;2023-07-13T10:27:44;22.00;96.50
62555;DHT22;48610;52.144;8.624;2023-07-13T10:30:46;22.20;95.90
62555;DHT22;48610;52.144;8.624;2023-07-13T10:33:48;21.90;95.40
62555;DHT22;48610;52.144;8.624;2023-07-13T10:36:52;21.90;95.70
62555;DHT22;48610;52.144;8.624;2023-07-13T10:39:55;22.20;96.40
62555;DHT22;48610;52.144;8.624;2023-07-13T10:42:57;21.90;95.30
62555;DHT22;48610;52.144;8.624;2023-07-13T10:46:00;21.80;95.20
62555;DHT22;48610;52.144;8.624;2023-07-13T10:49:05;21.80;95.40
62555;DHT22;48610;52.144;8.624;2023-07-13T10:59:10;21.60;97.50
62555;DHT22;48610;52.144;8.624;2023-07-13T11:02:21;22.10;96.30
62555;DHT22;48610;52.144;8.624;2023-07-13T11:05:33;22.40;94.90
62555;DHT22;48610;52.144;8.624;2023-07-13T11:08:37;21.90;95.20
62555;DHT22;48610;52.144;8.624;2023-07-13T11:11:39;22.40;96.10
62555;DHT22;48610;52.144;8.624;2023-07-13T11:15:04;22.10;94.50
62555;DHT22;48610;52.144;8.624;2023-07-13T11:18:20;22.60;94.90
62555;DHT22;48610;52.144;8.624;2023-07-13T11:21:25;22.90;95.10
62555;DHT22;48610;52.144;8.624;2023-07-13T11:24:29;23.20;94.40
62555;DHT22;48610;52.144;8.624;2023-07-13T11:27:52;23.20;93.30
62555;DHT22;48610;52.144;8.624;2023-07-13T11:33:57;22.70;93.60
62555;DHT22;48610;52.144;8.624;2023-07-13T11:36:59;22.60;94.00
62555;DHT22;48610;52.144;8.624;2023-07-13T11:40:00;22.30;94.60
62555;DHT22;48610;52.144;8.624;2023-07-13T11:43:01;22.90;94.20
62555;DHT22;48610;52.144;8.624;2023-07-13T11:46:26;23.10;92.20
62555;DHT22;48610;52.144;8.624;2023-07-13T11:49:30;22.90;93.00
62555;DHT22;48610;52.144;8.624;2023-07-13T11:52:35;23.50;91.70
62555;DHT22;48610;52.144;8.624;2023-07-13T11:55:38;23.50;92.00
62555;DHT22;48610;52.144;8.624;2023-07-13T11:58:38;23.00;91.70
62555;DHT22;48610;52.144;8.624;2023-07-13T12:01:45;22.90;92.60
62555;DHT22;48610;52.144;8.624;2023-07-13T12:04:46;23.10;93.40
62555;DHT22;48610;52.144;8.624;2023-07-13T12:07:49;22.30;93.80
62555;DHT22;48610;52.144;8.624;2023-07-13T12:10:57;21.90;94.50
62555;DHT22;48610;52.144;8.624;2023-07-13T12:13:58;21.60;94.50
62555;DHT22;48610;52.144;8.624;2023-07-13T12:16:58;21.60;94.60
62555;DHT22;48610;52.144;8.624;2023-07-13T12:19:59;22.20;95.40
62555;DHT22;48610;52.144;8.624;2023-07-13T12:23:00;22.50;93.80
62555;DHT22;48610;52.144;8.624;2023-07-13T12:26:04;22.50;92.50
62555;DHT22;48610;52.144;8.624;2023-07-13T12:29:06;22.60;92.10
62555;DHT22;48610;52.144;8.624;2023-07-13T12:32:09;23.00;92.30
62555;DHT22;48610;52.144;8.624;2023-07-13T12:35:15;22.20;92.10
62555;DHT22;48610;52.144;8.624;2023-07-13T12:38:16;21.80;93.80
62555;DHT22;48610;52.144;8.624;2023-07-13T12:41:17;21.90;93.20
62555;DHT22;48610;52.144;8.624;2023-07-13T12:44:29;21.90;93.70
62555;DHT22;48610;52.144;8.624;2023-07-13T12:47:30;22.10;94.30
62555;DHT22;48610;52.144;8.624;2023-07-13T12:50:38;22.30;93.70
62555;DHT22;48610;52.144;8.624;2023-07-13T12:53:48;22.40;93.40
62555;DHT22;48610;52.144;8.624;2023-07-13T12:56:50;22.20;93.40
62555;DHT22;48610;52.144;8.624;2023-07-13T12:59:54;22.20;92.80
62555;DHT22;48610;52.144;8.624;2023-07-13T13:02:56;22.20;92.20
62555;DHT22;48610;52.144;8.624;2023-07-13T13:06:23;22.40;92.40
62555;DHT22;48610;52.144;8.624;2023-07-13T13:09:24;22.70;91.40
62555;DHT22;48610;52.144;8.624;2023-07-13T13:12:25;23.20;92.10
62555;DHT22;48610;52.144;8.624;2023-07-13T13:15:26;23.70;91.00
62555;DHT22;48610;52.144;8.624;2023-07-13T13:18:27;24.00;90.10
62555;DHT22;48610;52.144;8.624;2023-07-13T13:21:29;24.00;87.40
62555;DHT22;48610;52.144;8.624;2023-07-13T13:24:29;23.40;86.70
62555;DHT22;48610;52.144;8.624;2023-07-13T13:27:30;23.00;86.20
62555;DHT22;48610;52.144;8.624;2023-07-13T13:30:30;22.90;86.20
62555;DHT22;48610;52.144;8.624;2023-07-13T13:33:31;22.70;87.20
62555;DHT22;48610;52.144;8.624;2023-07-13T13:36:33;22.70;89.30
62555;DHT22;48610;52.144;8.624;2023-07-13T13:39:37;22.40;90.80
62555;DHT22;48610;52.144;8.624;2023-07-13T13:42:38;21.30;93.70
62555;DHT22;48610;52.144;8.624;2023-07-13T13:45:39;20.70;95.80
62555;DHT22;48610;52.144;8.624;2023-07-13T13:48:40;19.80;98.20
62555;DHT22;48610;52.144;8.624;2023-07-13T13:51:41;19.50;99.90
62555;DHT22;48610;52.144;8.624;2023-07-13T13:54:42;18.90;99.90
62555;DHT22;48610;52.144;8.624;2023-07-13T13:57:42;18.70;99.90
62555;DHT22;48610;52.144;8.624;2023-07-13T14:00:43;18.60;99.90
62555;DHT22;48610;52.144;8.624;2023-07-13T14:03:46;18.70;99.90
62555;DHT22;48610;52.144;8.624;2023-07-13T14:06:48;18.60;99.90
62555;DHT22;48610;52.144;8.624;2023-07-13T14:09:49;18.10;99.90
62555;DHT22;48610;52.144;8.624;2023-07-13T14:12:54;18.00;99.90
62555;DHT22;48610;52.144;8.624;2023-07-13T14:15:56;18.20;99.90
62555;DHT22;48610;52.144;8.624;2023-07-13T14:18:58;18.30;99.90
62555;DHT22;48610;52.144;8.624;2023-07-13T14:22:00;18.30;99.90
62555;DHT22;48610;52.144;8.624;2023-07-13T14:25:01;18.50;99.90
62555;DHT22;48610;52.144;8.624;2023-07-13T14:28:21;18.60;99.90
62555;DHT22;48610;52.144;8.624;2023-07-13T14:31:24;18.90;99.90
62555;DHT22;48610;52.144;8.624;2023-07-13T14:34:25;18.90;99.90
62555;DHT22;48610;52.144;8.624;2023-07-13T14:37:26;19.00;99.90
62555;DHT22;48610;52.144;8.624;2023-07-13T14:40:30;19.00;99.90
62555;DHT22;48610;52.144;8.624;2023-07-13T14:43:31;19.10;99.90
62555;DHT22;48610;52.144;8.624;2023-07-13T14:46:33;19.10;99.90
62555;DHT22;48610;52.144;8.624;2023-07-13T14:49:42;19.00;99.90
62555;DHT22;48610;52.144;8.624;2023-07-13T14:52:44;18.40;99.90
62555;DHT22;48610;52.144;8.624;2023-07-13T14:55:46;18.20;99.90
62555;DHT22;48610;52.144;8.624;2023-07-13T14:58:47;17.90;99.90
62555;DHT22;48610;52.144;8.624;2023-07-13T15:01:48;17.70;99.90
62555;DHT22;48610;52.144;8.624;2023-07-13T15:04:49;17.60;99.90
62555;DHT22;48610;52.144;8.624;2023-07-13T15:07:51;17.40;99.90
62555;DHT22;48610;52.144;8.624;2023-07-13T15:10:53;17.30;99.90
62555;DHT22;48610;52.144;8.624;2023-07-13T15:13:54;17.10;99.90
62555;DHT22;48610;52.144;8.624;2023-07-13T15:16:55;17.10;99.90
62555;DHT22;48610;52.144;8.624;2023-07-13T15:19:57;17.10;99.90
62555;DHT22;48610;52.144;8.624;2023-07-13T15:22:58;17.10;99.90
62555;DHT22;48610;52.144;8.624;2023-07-13T15:25:59;17.10;99.90
62555;DHT22;48610;52.144;8.624;2023-07-13T15:29:00;17.20;99.90
62555;DHT22;48610;52.144;8.624;2023-07-13T15:32:02;17.00;99.90
62555;DHT22;48610;52.144;8.624;2023-07-13T15:35:03;17.40;99.90
62555;DHT22;48610;52.144;8.624;2023-07-13T15:38:14;17.30;99.90
62555;DHT22;48610;52.144;8.624;2023-07-13T15:44:29;17.50;99.90
62555;DHT22;48610;52.144;8.624;2023-07-13T15:47:31;17.70;99.90
62555;DHT22;48610;52.144;8.624;2023-07-13T15:50:48;17.80;99.90
62555;DHT22;48610;52.144;8.624;2023-07-13T15:53:49;17.70;99.90
62555;DHT22;48610;52.144;8.624;2023-07-13T15:56:55;17.80;99.90
62555;DHT22;48610;52.144;8.624;2023-07-13T15:59:56;17.80;99.90
62555;DHT22;48610;52.144;8.624;2023-07-13T16:02:56;17.90;99.90
62555;DHT22;48610;52.144;8.624;2023-07-13T16:05:57;18.00;99.90
62555;DHT22;48610;52.144;8.624;2023-07-13T16:08:58;18.00;99.90
62555;DHT22;48610;52.144;8.624;2023-07-13T16:11:59;18.20;99.90
62555;DHT22;48610;52.144;8.624;2023-07-13T16:14:59;18.30;99.90
62555;DHT22;48610;52.144;8.624;2023-07-13T16:18:00;18.40;99.90
62555;DHT22;48610;52.144;8.624;2023-07-13T16:21:01;18.40;99.90
62555;DHT22;48610;52.144;8.624;2023-07-13T16:24:02;18.50;99.90
62555;DHT22;48610;52.144;8.624;2023-07-13T16:27:03;18.40;99.90
62555;DHT22;48610;52.144;8.624;2023-07-13T16:30:19;18.50;99.90
62555;DHT22;48610;52.144;8.624;2023-07-13T16:33:26;18.70;99.90
62555;DHT22;48610;52.144;8.624;2023-07-13T16:36:28;18.80;99.90
62555;DHT22;48610;52.144;8.624;2023-07-13T16:39:30;19.00;99.90
62555;DHT22;48610;52.144;8.624;2023-07-13T16:42:31;19.00;99.90
62555;DHT22;48610;52.144;8.624;2023-07-13T16:45:32;19.10;99.90
62555;DHT22;48610;52.144;8.624;2023-07-13T16:48:38;19.00;99.90
62555;DHT22;48610;52.144;8.624;2023-07-13T16:51:39;18.80;99.90
62555;DHT22;48610;52.144;8.624;2023-07-13T16:54:40;18.90;99.90
62555;DHT22;48610;52.144;8.624;2023-07-13T16:57:43;18.90;99.90
62555;DHT22;48610;52.144;8.624;2023-07-13T17:00:44;18.80;99.90
62555;DHT22;48610;52.144;8.624;2023-07-13T17:03:44;18.90;99.90
62555;DHT22;48610;52.144;8.624;2023-07-13T17:06:45;19.10;99.90
62555;DHT22;48610;52.144;8.624;2023-07-13T17:09:47;18.80;99.90
62555;DHT22;48610;52.144;8.624;2023-07-13T17:12:48;18.80;99.90
62555;DHT22;48610;52.144;8.624;2023-07-13T17:15:51;18.70;99.90
62555;DHT22;48610;52.144;8.624;2023-07-13T17:18:58;18.90;99.90
62555;DHT22;48610;52.144;8.624;2023-07-13T17:22:00;19.20;99.90
62555;DHT22;48610;52.144;8.624;2023-07-13T17:25:11;19.40;99.90
62555;DHT22;48610;52.144;8.624;2023-07-13T17:28:14;19.00;99.90
62555;DHT22;48610;52.144;8.624;2023-07-13T17:31:18;19.20;99.90
62555;DHT22;48610;52.144;8.624;2023-07-13T17:34:20;19.00;99.90
62555;DHT22;48610;52.144;8.624;2023-07-13T17:37:21;19.10;99.90
62555;DHT22;48610;52.144;8.624;2023-07-13T17:40:23;18.70;99.90
62555;DHT22;48610;52.144;8.624;2023-07-13T17:43:24;18.80;99.90
62555;DHT22;48610;52.144;8.624;2023-07-13T17:46:30;18.70;99.90
62555;DHT22;48610;52.144;8.624;2023-07-13T17:49:31;18.70;99.90
62555;DHT22;48610;52.144;8.624;2023-07-13T17:52:32;18.50;99.90
62555;DHT22;48610;52.144;8.624;2023-07-13T17:55:33;18.40;99.90
62555;DHT22;48610;52.144;8.624;2023-07-13T17:58:34;18.50;99.90
62555;DHT22;48610;52.144;8.624;2023-07-13T18:01:35;18.60;99.90
62555;DHT22;48610;52.144;8.624;2023-07-13T18:04:40;18.50;99.90
62555;DHT22;48610;52.144;8.624;2023-07-13T18:07:40;18.60;99.90
62555;DHT22;48610;52.144;8.624;2023-07-13T18:10:42;18.80;99.90
62555;DHT22;48610;52.144;8.624;2023-07-13T18:13:42;18.90;99.90
62555;DHT22;48610;52.144;8.624;2023-07-13T18:16:53;18.80;99.90
62555;DHT22;48610;52.144;8.624;2023-07-13T18:19:55;18.70;99.90
62555;DHT22;48610;52.144;8.624;2023-07-13T18:22:57;18.70;99.90
62555;DHT22;48610;52.144;8.624;2023-07-13T18:25:57;18.70;99.90
62555;DHT22;48610;52.144;8.624;2023-07-13T18:28:58;18.60;99.90
62555;DHT22;48610;52.144;8.624;2023-07-13T18:31:59;18.30;99.90
62555;DHT22;48610;52.144;8.624;2023-07-13T18:35:04;18.20;99.90
62555;DHT22;48610;52.144;8.624;2023-07-13T18:38:10;18.10;99.90
62555;DHT22;48610;52.144;8.624;2023-07-13T18:41:18;18.00;99.90
62555;DHT22;48610;52.144;8.624;2023-07-13T18:44:19;18.00;99.90
62555;DHT22;48610;52.144;8.624;2023-07-13T18:47:21;18.00;99.90
62555;DHT22;48610;52.144;8.624;2023-07-13T18:50:31;18.00;99.90
62555;DHT22;48610;52.144;8.624;2023-07-13T18:53:32;17.90;99.90
62555;DHT22;48610;52.144;8.624;2023-07-13T18:56:33;17.90;99.90
62555;DHT22;48610;52.144;8.624;2023-07-13T18:59:36;17.90;99.90
62555;DHT22;48610;52.144;8.624;2023-07-13T19:02:37;17.90;99.90
62555;DHT22;48610;52.144;8.624;2023-07-13T19:05:38;17.80;99.90
62555;DHT22;48610;52.144;8.624;2023-07-13T19:08:42;17.80;99.90
62555;DHT22;48610;52.144;8.624;2023-07-13T19:11:44;17.90;99.90
62555;DHT22;48610;52.144;8.624;2023-07-13T19:14:45;17.80;99.90
62555;DHT22;48610;52.144;8.624;2023-07-13T19:17:49;17.80;99.90
62555;DHT22;48610;52.144;8.624;2023-07-13T19:20:56;17.90;99.90
62555;DHT22;48610;52.144;8.624;2023-07-13T19:24:00;17.90;99.90
62555;DHT22;48610;52.144;8.624;2023-07-13T19:27:01;17.90;99.90
62555;DHT22;48610;52.144;8.624;2023-07-13T19:30:02;17.90;99.90
62555;DHT22;48610;52.144;8.624;2023-07-13T19:33:06;17.80;99.90
62555;DHT22;48610;52.144;8.624;2023-07-13T19:36:11;17.90;99.90
62555;DHT22;48610;52.144;8.624;2023-07-13T19:42:23;18.00;99.90
62555;DHT22;48610;52.144;8.624;2023-07-13T19:45:24;18.00;99.90
62555;DHT22;48610;52.144;8.624;2023-07-13T19:48:25;18.00;99.90
62555;DHT22;48610;52.144;8.624;2023-07-13T19:51:25;17.80;99.90